Time;durP1;ratioP1;P1;durP2;ratioP2;P2;SDS_P1;SDS_P2;PMS_P1;PMS_P2;Temp;Humidity;BMP_temperature;BMP_pressure;BME280_temperature;BME280_humidity;BME280_pressure;Samples;Min_cycle;Max_cycle;Signal;HPM_P1;HPM_P2
2024/02/08 00:02:12;;;;;;;32.88;12.57;;;;;;;-144.05;84.43;57067.59;5091592;28;20054;-76
2024/02/08 00:04:38;;;;;;;26.73;11.95;;;;;;;-144.05;84.40;57110.09;5091547;28;20047;-76
2024/02/08 00:07:04;;;;;;;26.85;11.55;;;;;;;-144.05;84.61;57090.97;5093117;28;20023;-76
2024/02/08 00:09:30;;;;;;;24.98;11.32;;;;;;;-144.05;85.02;57116.47;5092926;28;20093;-76
2024/02/08 00:11:56;;;;;;;25.58;10.18;;;-1.60;99.90;;;-144.05;84.31;57105.84;5092684;28;20122;-78
2024/02/08 00:14:23;;;;;;;22.48;11.52;;;;;;;-144.05;84.39;57093.09;5094474;28;20106;-76
2024/02/08 00:16:50;;;;;;;25.63;11.55;;;;;;;-144.05;84.77;57114.34;5092620;28;20081;-77
2024/02/08 00:19:16;;;;;;;23.88;10.57;;;;;;;-144.05;84.77;57116.47;5093282;28;20023;-77
2024/02/08 00:21:44;;;;;;;23.55;10.93;;;;;;;-144.05;84.85;57086.72;5097865;28;20039;-77
2024/02/08 00:24:10;;;;;;;26.77;11.18;;;;;;;-144.05;84.99;57107.97;5092291;28;20027;-75
2024/02/08 00:26:36;;;;;;;25.27;12.02;;;;;;;-144.05;84.64;57116.47;5090640;28;20031;-76
2024/02/08 00:29:02;;;;;;;21.58;9.90;;;;;;;-144.05;84.73;57112.22;5091289;28;20028;-78
2024/02/08 00:31:29;;;;;;;31.10;13.27;;;;;;;-144.05;85.34;57093.09;5092178;28;20036;-77
2024/02/08 00:33:55;;;;;;;23.67;11.02;;;;;;;-144.05;84.96;57118.59;5091006;28;20020;-76
2024/02/08 00:36:21;;;;;;;23.25;10.77;;;;;;;-144.05;84.95;57080.34;5092208;28;20120;-77
2024/02/08 00:38:48;;;;;;;19.45;11.25;;;;;;;-144.05;85.10;57082.47;5092154;28;20062;-78
2024/02/08 00:41:14;;;;;;;23.98;11.45;;;;;;;-144.05;85.21;57090.97;5092110;28;20032;-75
2024/02/08 00:43:40;;;;;;;30.45;12.48;;;;;;;-144.05;85.09;57131.31;5092270;28;20043;-77
2024/02/08 00:46:07;;;;;;;25.95;11.82;;;;;;;-144.05;84.93;57103.72;5092202;28;20059;-76
2024/02/08 00:48:33;;;;;;;26.02;12.82;;;;;;;-144.05;84.72;57065.47;5092236;28;20032;-76
2024/02/08 00:50:59;;;;;;;29.33;11.38;;;;;;;-144.05;84.94;57082.47;5091800;28;20473;-75
2024/02/08 00:53:25;;;;;;;27.77;13.43;;;;;;;-144.05;84.79;57093.09;5092171;28;20036;-76
2024/02/08 00:55:51;;;;;;;30.30;12.10;;;;;;;-144.05;85.01;57086.72;5091999;28;20431;-78
2024/02/08 00:58:18;;;;;;;26.98;12.60;;;;;;;-144.05;84.86;57103.72;5092006;28;20032;-76
2024/02/08 01:00:44;;;;;;;32.50;13.20;;;;;;;-144.05;85.78;57101.59;5098668;28;20508;-77
2024/02/08 01:03:10;;;;;;;26.98;12.35;;;-1.70;99.90;;;-144.05;85.20;57107.97;5092439;28;20028;-78
2024/02/08 01:05:37;;;;;;;28.50;12.05;;;1.30;99.90;;;-144.05;85.57;57105.84;5092964;28;20039;-75
2024/02/08 01:08:03;;;;;;;25.88;11.38;;;;;;;-144.05;85.42;57084.59;5096087;28;20046;-77
2024/02/08 01:10:30;;;;;;;27.25;11.35;;;1.60;99.90;;;-144.05;85.50;57103.72;5099539;28;20043;-75
2024/02/08 01:12:57;;;;;;;29.35;11.68;;;;;;;-144.05;85.52;57107.97;5103358;28;20464;-78
2024/02/08 01:15:23;;;;;;;30.60;13.10;;;;;;;-144.05;85.44;57071.84;5098067;28;20034;-75
2024/02/08 01:17:51;;;;;;;23.23;11.77;;;;;;;-144.05;85.40;57105.84;5096158;28;20020;-77
2024/02/08 01:20:22;;;;;;;24.10;11.30;;;;;;;-144.05;85.49;57086.72;5095700;28;20024;-77
2024/02/08 01:22:50;;;;;;;34.70;12.98;;;1.40;99.90;;;-144.05;85.61;57101.59;5096653;28;20031;-78
2024/02/08 01:25:16;;;;;;;22.13;11.55;;;;;;;-144.05;85.66;57095.22;5095394;28;20052;-77
2024/02/08 01:27:43;;;;;;;26.48;11.35;;;;;;;-144.05;85.31;57061.22;5099888;28;20074;-77
2024/02/08 01:30:13;;;;;;;26.15;10.30;;;1.50;99.90;;;-144.05;85.64;57097.34;5104533;28;20075;-77
2024/02/08 01:32:40;;;;;;;31.60;12.98;;;;;;;-144.05;85.99;57061.22;5095611;28;20500;-77
2024/02/08 01:35:21;;;;;;;26.35;12.48;;;;;;;-144.05;86.05;57080.34;5094741;28;20511;-77
2024/02/08 01:37:48;;;;;;;26.67;11.40;;;-2.10;99.90;;;-144.05;86.02;57082.47;5095222;28;20484;-76
2024/02/08 01:40:17;;;;;;;21.23;10.68;;;;;;;-144.05;85.84;57084.59;5109439;28;20128;-76
2024/02/08 01:42:44;;;;;;;25.80;12.10;;;-1.60;99.90;;;-144.05;86.04;57065.47;5097310;28;20024;-77
2024/02/08 01:45:31;;;;;;;26.98;12.65;;;2.40;99.90;;;-144.05;86.22;57110.09;5097834;27;20035;-77
2024/02/08 01:48:01;;;;;;;36.25;13.07;;;1.40;99.90;;;-144.05;85.99;57110.09;5095169;28;20054;-76
2024/02/08 01:50:35;;;;;;;28.25;12.65;;;1.30;99.90;;;-144.05;85.84;57112.22;5093316;28;20036;-77
2024/02/08 01:53:06;;;;;;;33.47;11.95;;;1.40;99.90;;;-144.05;85.48;57122.84;5093575;28;20020;-78
2024/02/08 01:55:34;;;;;;;28.35;12.25;;;1.30;99.90;;;-144.05;85.79;57097.34;5096596;28;20031;-77
2024/02/08 01:58:07;;;;;;;29.63;13.73;;;-1.70;99.90;;;-144.05;85.43;57112.22;5095053;28;20389;-77
2024/02/08 02:00:36;;;;;;;26.73;12.57;;;1.20;99.90;;;-144.05;85.52;57086.72;5094500;28;20536;-77
2024/02/08 02:03:12;;;;;;;29.13;12.32;;;1.40;99.90;;;-144.05;85.56;57110.09;5095045;28;20032;-77
2024/02/08 02:05:46;;;;;;;29.45;12.15;;;1.40;99.90;;;-144.05;85.92;57099.47;5095639;28;20024;-77
2024/02/08 02:08:16;;;;;;;33.80;13.07;;;1.20;99.90;;;-144.05;86.05;57101.59;5094668;28;20020;-77
2024/02/08 02:11:00;;;;;;;25.85;12.13;;;-0.80;99.90;;;-144.05;85.69;57129.22;5094752;28;20407;-76
2024/02/08 02:13:28;;;;;;;26.40;11.48;;;1.50;99.90;;;-144.05;85.75;57078.22;5094497;28;20483;-75
2024/02/08 02:15:54;;;;;;;23.25;11.65;;;;;;;-144.05;85.98;57067.59;5093420;28;20054;-77
2024/02/08 02:18:21;;;;;;;25.77;11.13;;;;;;;-144.05;85.97;57133.44;5094192;28;20397;-78
2024/02/08 02:20:46;;;;;;;27.90;12.98;;;-1.70;99.90;;;-144.05;86.40;57133.44;5093072;28;20023;-77
2024/02/08 02:23:18;;;;;;;22.30;12.32;;;-2.00;99.90;;;-144.05;86.21;57086.72;5094401;28;20040;-77
2024/02/08 02:25:48;;;;;;;22.90;10.23;;;;;;;-144.05;86.22;57084.59;5093171;28;20032;-76
2024/02/08 02:28:17;;;;;;;27.73;12.95;;;1.50;99.90;;;-144.05;86.14;57084.59;5097378;28;20020;-77
2024/02/08 02:30:48;;;;;;;26.00;12.90;;;-2.40;99.90;;;-144.05;86.28;57099.47;5094416;28;20453;-77
2024/02/08 02:33:16;;;;;;;32.00;12.57;;;-2.40;99.90;;;-144.05;86.11;57086.72;5094274;28;20027;-78
2024/02/08 02:35:48;;;;;;;27.92;13.27;;;-1.60;99.90;;;-144.05;86.92;57107.97;5106276;28;20024;-78
2024/02/08 02:38:17;;;;;;;32.63;13.02;;;;;;;-144.05;86.45;57090.97;5100331;28;20172;-78
2024/02/08 02:40:46;;;;;;;27.40;12.38;;;;;;;-144.05;86.39;57090.97;5094347;28;20089;-77
2024/02/08 02:43:14;;;;;;;28.42;13.80;;;2.10;99.90;;;-144.05;86.32;57127.09;5094754;28;20051;-77
2024/02/08 02:45:43;;;;;;;26.50;12.65;;;1.60;99.90;;;-144.05;86.45;57090.97;5093750;28;20505;-77
2024/02/08 02:48:09;;;;;;;34.33;13.60;;;;;;;-144.05;86.09;57090.97;5094013;28;20584;-75
2024/02/08 02:50:41;;;;;;;32.10;13.80;;;-1.80;99.90;;;-144.05;86.75;57110.09;5093888;28;20036;-76
2024/02/08 02:53:08;;;;;;;28.10;13.60;;;1.30;99.90;;;-144.05;86.54;57086.72;5100804;28;20020;-77
2024/02/08 02:55:35;;;;;;;29.40;12.55;;;1.50;99.90;;;-144.05;86.12;57118.59;5099296;28;20292;-78
2024/02/08 02:58:02;;;;;;;28.10;12.32;;;;;;;-144.05;86.04;57110.09;5094257;28;20020;-77
2024/02/08 03:00:34;;;;;;;22.27;11.95;;;;;;;-144.05;86.52;57099.47;5094038;28;20043;-78
2024/02/08 03:03:12;;;;;;;31.65;14.30;;;-1.90;99.90;;;-144.05;86.89;57099.47;5098190;27;20102;-77
2024/02/08 03:05:49;;;;;;;47.55;15.60;;;1.60;99.90;;;-144.05;86.31;57056.97;5093112;28;20032;-78
2024/02/08 03:08:16;;;;;;;33.08;15.18;;;;;;;-144.05;86.05;57090.97;5094009;28;20024;-77
2024/02/08 03:10:42;;;;;;;32.13;13.23;;;;;;;-144.05;85.59;57101.59;5092088;28;20100;-78
2024/02/08 03:13:10;;;;;;;35.85;13.68;;;;;;;-144.05;85.97;57076.09;5097871;28;20111;-76
2024/02/08 03:15:39;;;;;;;31.25;13.52;;;;;;;-144.05;85.88;57095.22;5098963;28;20107;-78
2024/02/08 03:18:07;;;;;;;36.45;13.20;;;1.50;99.90;;;-144.05;85.75;57112.22;5097359;28;20039;-78
2024/02/08 03:20:35;;;;;;;31.13;12.38;;;;;;;-144.05;85.66;57093.09;5102944;28;20386;-76
2024/02/08 03:23:02;;;;;;;26.83;12.73;;;;;;;-144.05;85.59;57076.09;5093137;28;20059;-76
2024/02/08 03:25:30;;;;;;;28.42;12.15;;;;;;;-144.05;86.07;57103.72;5093892;28;20107;-78
2024/02/08 03:27:57;;;;;;;26.60;12.32;;;;;;;-144.05;85.97;57110.09;5092003;28;20039;-78
2024/02/08 03:30:23;;;;;;;24.67;12.57;;;;;;;-144.05;85.64;57086.72;5092343;28;20040;-77
2024/02/08 03:32:52;;;;;;;25.98;11.68;;;1.10;99.90;;;-144.05;85.95;57105.84;5092838;28;20089;-77
2024/02/08 03:35:32;;;;;;;25.38;11.82;;;1.20;99.90;;;-144.05;86.27;57082.47;5092566;28;20034;-77
2024/02/08 03:38:03;;;;;;;26.52;11.45;;;;;;;-144.05;86.07;57118.59;5092355;28;20073;-77
2024/02/08 03:40:32;;;;;;;26.55;12.15;;;1.40;99.90;;;-144.05;86.20;57063.34;5091845;28;20047;-78
2024/02/08 03:43:00;;;;;;;36.15;13.43;;;1.40;99.90;;;-144.05;86.17;57078.22;5091255;28;20020;-77
2024/02/08 03:45:27;;;;;;;27.17;13.23;;;;;;;-144.05;86.12;57090.97;5091912;28;20035;-78
2024/02/08 03:47:59;;;;;;;30.15;13.75;;;1.10;99.90;;;-144.05;86.60;57097.34;5092636;28;20057;-77
2024/02/08 03:50:33;;;;;;;27.23;13.18;;;1.40;99.90;;;-144.05;86.52;57086.72;5103316;28;20103;-78
2024/02/08 03:53:11;;;;;;;27.60;12.30;;;1.50;99.90;;;-144.05;86.55;57127.09;5117763;28;20020;-78
2024/02/08 03:55:39;;;;;;;25.75;12.00;;;;;;;-144.05;86.30;57099.47;5109328;28;20068;-78
2024/02/08 03:58:07;;;;;;;25.58;12.50;;;;;;;-144.05;86.77;57090.97;5096028;28;20035;-77
2024/02/08 04:00:34;;;;;;;23.88;12.27;;;2.30;99.90;;;-144.05;86.75;57073.97;5091753;28;20024;-77
2024/02/08 04:03:10;;;;;;;26.65;11.75;;;1.60;99.90;;;-144.05;86.74;57082.47;5092013;28;20024;-77
2024/02/08 04:05:56;;;;;;;26.77;12.98;;;1.50;99.90;;;-144.05;86.59;57095.22;5098825;28;20039;-76
2024/02/08 04:09:05;;;;;;;33.65;13.10;;;1.60;99.90;;;-144.05;86.39;57097.34;5095254;28;20081;-78
2024/02/08 04:55:26;;;;;;;29.13;13.82;;;;;;;-144.05;86.70;57084.59;5092406;28;20073;-80
2024/02/08 04:57:55;;;;;;;32.25;14.35;;;;;;;-144.05;87.26;57103.72;5093425;28;20518;-78
2024/02/08 05:00:27;;;;;;;31.58;14.65;;;;;;;-144.05;86.95;57095.22;5092910;28;20024;-80
2024/02/08 05:03:00;;;;;;;29.77;14.75;;;-1.90;99.90;;;-144.05;87.32;57076.09;5091841;28;20069;-79
2024/02/08 05:05:26;;;;;;;31.63;15.63;;;-1.70;99.90;;;-144.05;86.88;57084.59;5091837;28;20032;-79
2024/02/08 05:07:52;;;;;;;29.02;13.82;;;;;;;-144.05;86.97;57093.09;5092417;28;20097;-78
2024/02/08 05:10:19;;;;;;;38.15;14.13;;;;;;;-144.05;87.07;57101.59;5090568;28;20035;-79
2024/02/08 05:12:47;;;;;;;30.00;14.35;;;;;;;-144.05;87.15;57080.34;5091851;28;20024;-78
2024/02/08 05:15:13;;;;;;;31.02;15.32;;;;;;;-144.05;86.94;57088.84;5091653;28;20058;-78
2024/02/08 05:17:40;;;;;;;33.25;15.13;;;-1.90;99.90;;;-144.05;86.88;57095.22;5091953;28;20028;-79
2024/02/08 05:20:11;;;;;;;35.13;16.02;;;-1.40;99.90;;;-144.05;87.04;57080.34;5092264;28;20024;-79
2024/02/08 05:22:40;;;;;;;30.23;13.82;;;1.90;99.90;;;-144.05;86.82;57095.22;5098720;28;20028;-76
2024/02/08 05:25:10;;;;;;;24.52;12.00;;;;;;;-144.05;87.05;57082.47;5093622;28;20027;-79
2024/02/08 05:27:39;;;;;;;28.35;13.40;;;-1.90;99.90;;;-144.05;87.12;57065.47;5096205;28;20042;-78
2024/02/08 05:30:06;;;;;;;27.13;11.20;;;-1.60;99.90;;;-144.05;86.88;57093.09;5095405;28;20031;-77
2024/02/08 05:32:35;;;;;;;23.05;12.68;;;-1.60;99.90;;;-144.05;86.94;57082.47;5095484;28;20107;-79
2024/02/08 05:35:04;;;;;;;22.92;12.13;;;1.70;99.90;;;-144.05;86.81;57114.34;5091788;28;20473;-79
2024/02/08 05:37:31;;;;;;;28.80;12.68;;;;;;;-144.05;86.98;57086.72;5091142;28;20028;-78
2024/02/08 05:39:57;;;;;;;23.83;12.63;;;;;;;-144.05;86.88;57095.22;5097454;28;20028;-78
2024/02/08 05:42:24;;;;;;;34.33;14.00;;;;;;;-144.05;87.45;57114.34;5093360;28;20411;-79
2024/02/08 05:45:12;;;;;;;31.60;14.75;;;1.60;99.90;;;-144.05;87.50;57105.84;5102606;28;20032;-79
2024/02/08 05:47:38;;;;;;;34.47;14.93;;;-1.50;99.90;;;-144.05;87.43;57088.84;5100634;28;20035;-80
2024/02/08 05:50:06;;;;;;;28.80;13.52;;;;;;;-144.05;87.20;57095.22;5099767;28;20028;-82
2024/02/08 05:52:33;;;;;;;29.52;13.20;;;-1.70;99.90;;;-144.05;87.28;57110.09;5102344;28;20027;-77
2024/02/08 05:55:02;;;;;;;31.20;13.38;;;;;;;-144.05;87.17;57071.84;5096382;28;20035;-78
2024/02/08 05:57:30;;;;;;;31.15;13.00;;;;;;;-144.05;87.23;57067.59;5103133;28;20122;-78
2024/02/08 06:00:00;;;;;;;27.75;13.75;;;;;;;-144.05;87.20;57069.72;5102545;28;20020;-78
2024/02/08 06:02:26;;;;;;;31.35;13.95;;;;;;;-144.05;87.22;57086.72;5101413;28;20027;-78
2024/02/08 06:04:59;;;;;;;32.05;13.20;;;;;;;-144.05;86.95;57069.72;5100489;28;20043;-78
2024/02/08 06:07:30;;;;;;;28.38;13.88;;;1.80;99.90;;;-144.05;87.02;57054.88;5095981;28;20051;-79
2024/02/08 06:10:07;;;;;;;27.73;13.30;;;-1.30;99.90;;;-144.05;87.04;57080.34;5100557;28;20641;-77
2024/02/08 06:12:42;;;;;;;28.95;12.65;;;-1.60;99.90;;;-144.05;87.08;57084.59;5095466;28;20371;-78
2024/02/08 06:15:21;;;;;;;29.58;13.70;;;1.80;99.90;;;-144.05;87.04;57054.88;5103983;28;20019;-77
2024/02/08 06:17:57;;;;;;;26.73;12.80;;;-1.50;99.90;;;-144.05;86.89;57099.47;5096229;28;20031;-75
2024/02/08 06:20:33;;;;;;;;;;;1.70;99.90;;;-144.05;86.87;57084.59;5098156;28;20035;-80
2024/02/08 06:23:16;;;;;;;29.25;13.27;;;;;;;-144.05;86.70;57082.47;5099620;28;19908;-80
2024/02/08 06:25:46;;;;;;;33.22;14.85;;;1.80;99.90;;;-144.05;87.01;57073.97;5099226;28;20080;-79
2024/02/08 06:28:15;;;;;;;30.45;14.13;;;1.80;99.90;;;-144.05;86.90;57080.34;5109475;28;20036;-80
2024/02/08 06:30:46;;;;;;;31.48;14.00;;;;;;;-144.05;86.65;57065.47;5103683;28;20056;-78
2024/02/08 06:33:25;;;;;;;26.50;13.25;;;1.80;99.90;;;-144.05;87.01;57093.09;5096073;28;20020;-79
2024/02/08 06:35:56;;;;;;;29.83;13.02;;;;;;;-144.05;86.86;57114.34;5098007;28;20020;-76
2024/02/08 06:38:40;;;;;;;28.65;12.30;;;1.70;99.90;;;-144.05;87.18;57090.97;5097192;28;20024;-79
2024/02/08 06:41:23;;;;;;;30.42;14.43;;;-1.50;99.90;;;-144.05;87.37;57097.34;5100516;28;20539;-79
2024/02/08 06:43:57;;;;;;;32.60;14.93;;;;;;;-144.05;86.95;57110.09;5119644;28;20012;-75
2024/02/08 06:46:47;;;;;;;35.15;14.15;;;1.70;99.90;;;-144.05;86.83;57078.22;5107078;28;20144;-78
2024/02/08 07:38:53;;;;;;;39.83;16.58;;;-1.30;99.90;;;-144.05;87.40;57054.88;5093814;28;20035;-77
2024/02/08 07:41:21;;;;;;;45.30;18.10;;;-1.40;99.90;;;-144.05;87.61;57071.84;5093849;28;20027;-76
2024/02/08 07:43:56;;;;;;;42.35;17.70;;;-1.10;99.90;;;-144.05;87.53;57110.09;5093145;28;20481;-77
2024/02/08 07:46:29;;;;;;;43.85;19.10;;;-1.10;99.90;;;-144.05;87.95;57082.47;5093295;28;20020;-78
2024/02/08 07:48:58;;;;;;;45.40;18.80;;;;;;;-144.05;87.67;57112.22;5101432;28;20032;-77
2024/02/08 07:51:28;;;;;;;49.15;20.25;;;;;;;-144.05;87.43;57078.22;5093155;28;20117;-78
2024/02/08 07:53:58;;;;;;;45.08;19.52;;;3.00;99.90;;;-144.05;87.81;57050.63;5093356;28;20091;-77
2024/02/08 07:59:04;;;;;;;46.63;18.40;;;2.50;99.90;;;-144.05;87.79;57065.47;5093430;28;20024;-78
2024/02/08 08:01:43;;;;;;;38.30;17.27;;;-0.50;99.90;;;-144.05;87.97;57088.84;5091836;28;20024;-78
2024/02/08 08:04:12;;;;;;;42.17;17.75;;;-1.00;99.90;;;-144.05;87.50;57076.09;5093693;28;20024;-78
2024/02/08 08:06:47;;;;;;;38.42;16.63;;;;;;;-144.05;87.58;57048.50;5093259;28;20024;-78
2024/02/08 08:09:18;;;;;;;40.42;16.38;;;-0.50;99.90;;;-144.05;87.27;57069.72;5093689;28;20372;-79
2024/02/08 08:11:51;;;;;;;35.45;16.33;;;2.70;99.90;;;-144.05;87.32;57052.75;5094058;28;20032;-76
2024/02/08 08:15:13;;;;;;;37.88;16.38;;;-0.20;99.90;;;-144.05;87.02;57084.59;5093454;28;20079;-78
2024/02/08 08:17:10;;;;;;;33.78;17.48;;;3.70;99.90;;;-144.05;87.23;57063.34;5082648;28;20056;-76
2024/02/08 08:19:41;;;;;;;33.50;16.80;;;-0.20;99.90;;;-144.05;87.42;57063.34;5092457;28;20085;-78
2024/02/08 08:25:28;;;;;;;36.70;15.95;;;3.90;99.90;;;-144.05;87.20;57065.47;5093125;28;20036;-79
2024/02/08 08:28:09;;;;;;;30.90;15.27;;;;;;;-144.05;86.87;57040.00;5097306;28;20020;-76
2024/02/08 08:30:38;;;;;;;38.13;16.92;;;;;;;-144.05;86.72;57054.88;5095635;28;20080;-77
2024/02/08 08:40:48;;;;;;;27.23;13.95;;;;;;;-144.05;85.89;57065.47;5095865;28;20128;-76
2024/02/08 08:43:19;;;;;;;27.67;12.63;;;-0.80;99.90;;;-144.05;85.27;57042.13;5092882;28;20024;-76
2024/02/08 08:45:50;;;;;;;29.95;12.23;;;3.60;99.90;;;-144.05;84.54;57061.22;5093388;28;20047;-78
2024/02/08 08:48:21;;;;;;;27.40;13.00;;;3.60;99.90;;;-144.05;84.08;57035.75;5092878;28;20092;-78
2024/02/08 08:50:55;;;;;;;31.42;12.63;;;0.80;99.90;;;-144.05;83.93;57071.84;5092544;28;20078;-78
2024/02/08 08:53:28;;;;;;;22.80;12.18;;;0.30;99.90;;;-144.05;83.19;57065.47;5091379;28;20157;-78
2024/02/08 08:55:56;;;;;;;22.20;11.77;;;0.20;99.90;;;-144.05;81.95;57046.38;5099645;28;20073;-78
2024/02/08 08:58:38;;;;;;;26.15;11.13;;;;;;;-144.05;81.59;57071.84;5092424;28;20030;-78
2024/02/08 09:01:15;;;;;;;24.50;11.68;;;;;;;-144.05;81.41;57048.50;5090890;28;20012;-78
2024/02/08 09:04:22;;;;;;;20.08;11.73;;;0.90;99.90;;;-144.05;80.50;57063.34;5096231;28;20606;-78
2024/02/08 09:06:48;;;;;;;22.23;11.68;;;;;;;-144.05;80.39;57012.38;5108610;28;20154;-79
2024/02/08 09:12:12;;;;;;;19.17;9.95;;;1.00;99.90;;;-144.05;78.70;57052.75;5081410;28;20111;-78
2024/02/08 09:14:48;;;;;;;21.90;10.68;;;5.40;99.90;;;-144.05;78.95;57027.25;5093632;28;20040;-78
2024/02/08 09:17:25;;;;;;;21.42;10.80;;;0.70;99.90;;;-144.05;78.91;57046.38;5093316;28;20024;-78
2024/02/08 09:19:51;;;;;;;19.33;10.48;;;;;;;-144.05;78.88;57023.00;5092900;28;20428;-78
2024/02/08 09:22:18;;;;;;;24.25;11.27;;;0.90;99.90;;;-144.05;79.13;57071.84;5093077;28;20046;-78
2024/02/08 09:24:44;;;;;;;21.20;9.75;;;1.50;99.90;;;-144.05;78.62;57052.75;5115785;28;20042;-78
2024/02/08 09:27:19;;;;;;;15.38;8.63;;;1.50;99.90;;;-144.05;78.30;57042.13;5099592;28;20044;-78
2024/02/08 09:29:56;;;;;;;17.15;9.60;;;1.70;99.90;;;-144.05;78.61;57033.63;5103395;28;20508;-77
2024/02/08 09:35:13;;;;;;;15.02;8.55;;;4.70;99.90;;;-144.05;77.69;57067.59;5106712;28;20027;-78
2024/02/08 09:37:47;;;;;;;13.45;8.07;;;1.00;99.90;;;-144.05;77.52;57016.63;5101132;28;20442;-77
2024/02/08 09:40:59;;;;;;;16.92;7.90;;;1.30;99.90;;;-144.05;77.39;57056.97;5097066;28;20112;-75
2024/02/08 09:43:16;;;;;;;15.65;7.43;;;;;;;-144.05;77.29;57033.63;5087423;28;20040;-76
2024/02/08 09:46:10;;;;;;;15.15;7.68;;;0.80;99.90;;;-144.05;77.13;57040.00;5096352;28;20110;-79
2024/02/08 09:48:47;;;;;;;12.95;7.25;;;2.00;99.90;;;-144.05;77.39;57052.75;5100318;28;20489;-76
2024/02/08 09:51:26;;;;;;;13.15;6.93;;;5.40;99.90;;;-144.05;77.59;57048.50;5097474;28;20020;-77
2024/02/08 09:53:54;;;;;;;11.35;6.45;;;1.10;99.90;;;-144.05;77.48;57056.97;5097780;28;20035;-75
2024/02/08 09:56:25;;;;;;;10.43;6.18;;;4.70;99.90;;;-144.05;77.81;57042.13;5096710;28;20198;-77
2024/02/08 09:58:55;;;;;;;13.77;6.85;;;5.80;99.90;;;-144.05;78.39;57048.50;5098244;28;20088;-77
2024/02/08 10:01:22;;;;;;;12.82;5.95;;;;;;;-144.05;77.88;57071.84;5107125;28;20396;-76
2024/02/08 10:03:49;;;;;;;11.57;6.07;;;2.20;99.90;;;-144.05;77.29;57056.97;5097956;28;20559;-78
2024/02/08 10:06:38;;;;;;;12.38;7.40;;;4.80;99.90;;;-144.05;77.54;57046.38;5097649;28;20021;-78
2024/02/08 10:09:34;;;;;;;10.65;6.07;;;1.50;99.90;;;-144.05;77.04;57063.34;5101689;28;20035;-78
2024/02/08 10:12:06;;;;;;;13.45;6.35;;;1.40;99.90;;;-144.05;76.66;57052.75;5099919;28;20509;-78
2024/02/08 10:14:46;;;;;;;12.82;6.28;;;5.80;99.90;;;-144.05;76.63;57054.88;5096703;28;20036;-78
2024/02/08 10:17:24;;;;;;;11.35;6.28;;;1.60;99.90;;;-144.05;76.73;57052.75;5096871;28;20016;-78
2024/02/08 10:28:42;;;;;;;10.95;5.78;;;6.00;99.90;;;-144.05;77.39;57054.88;5105088;28;20034;-78
2024/02/08 10:31:12;;;;;;;10.30;5.75;;;;;;;-144.05;78.15;57035.75;5097368;28;20088;-76
2024/02/08 10:33:39;;;;;;;9.60;5.45;;;1.10;99.90;;;-144.05;78.45;57035.75;5103462;28;20033;-77
2024/02/08 10:36:08;;;;;;;11.25;6.03;;;1.40;99.90;;;-144.05;78.00;57048.50;5106059;28;20062;-77
2024/02/08 10:41:27;;;;;;;13.70;6.35;;;1.70;99.90;;;-144.05;77.58;57044.25;5098452;28;20051;-75
2024/02/08 10:43:57;;;;;;;11.65;6.38;;;2.10;99.90;;;-144.05;77.13;57035.75;5098358;28;20044;-77
2024/02/08 10:46:31;;;;;;;12.27;6.97;;;6.10;99.90;;;-144.05;77.55;57031.50;5098095;28;20103;-77
2024/02/08 10:49:10;;;;;;;8.67;6.03;;;6.10;99.90;;;-144.05;77.42;57035.75;5098737;28;20024;-77
2024/02/08 10:51:43;;;;;;;8.45;5.68;;;5.30;99.90;;;-144.05;77.59;57033.63;5097210;28;20035;-76
2024/02/08 10:54:15;;;;;;;12.30;5.82;;;1.70;99.90;;;-144.05;78.23;57044.25;5097917;28;20127;-76
2024/02/08 10:56:45;;;;;;;11.75;5.78;;;1.40;99.90;;;-144.05;78.09;57040.00;5102527;28;20024;-76
2024/02/08 10:59:38;;;;;;;10.57;6.00;;;1.40;99.90;;;-144.05;78.78;57052.75;5096298;28;20015;-76
2024/02/08 11:02:08;;;;;;;10.93;6.20;;;1.80;99.90;;;-144.05;78.87;57035.75;5095154;28;20481;-76
2024/02/08 11:04:41;;;;;;;11.68;5.90;;;2.00;99.90;;;-144.05;78.77;57027.25;5100709;28;20104;-77
2024/02/08 11:07:22;;;;;;;12.38;6.43;;;1.40;99.90;;;-144.05;78.25;57052.75;5097205;28;20016;-77
2024/02/08 11:09:48;;;;;;;11.73;6.22;;;1.40;99.90;;;-144.05;78.40;57046.38;5119509;27;20035;-76
2024/02/08 11:12:31;;;;;;;12.35;6.47;;;1.40;99.90;;;-144.05;78.75;57023.00;5099913;28;20370;-77
2024/02/08 11:15:14;;;;;;;13.38;6.53;;;1.40;99.90;;;-144.05;79.03;57033.63;5097764;28;20024;-77
2024/02/08 11:17:49;;;;;;;12.57;6.15;;;1.80;99.90;;;-144.05;79.35;57052.75;5099141;28;20028;-80
2024/02/08 11:20:44;;;;;;;12.60;6.75;;;1.80;99.90;;;-144.05;79.46;57044.25;5097074;28;20024;-76
2024/02/08 11:23:23;;;;;;;10.13;6.15;;;6.10;99.90;;;-144.05;80.09;57027.25;5100250;28;20573;-79
2024/02/08 11:25:53;;;;;;;9.70;6.53;;;5.20;99.90;;;-144.05;80.29;57050.63;5105386;28;20032;-80
2024/02/08 11:28:28;;;;;;;11.45;6.50;;;5.50;99.90;;;-144.05;80.47;57042.13;5094638;28;20078;-79
2024/02/08 11:30:55;;;;;;;10.02;5.80;;;1.60;99.90;;;-144.05;80.41;57027.25;5095252;28;20062;-81
2024/02/08 11:33:40;;;;;;;14.45;6.60;;;6.10;99.90;;;-144.05;80.52;57020.88;5094839;28;20027;-78
2024/02/08 11:36:13;;;;;;;12.00;6.53;;;1.50;99.90;;;-144.05;80.85;57063.34;5096081;28;20024;-78
2024/02/08 11:38:46;;;;;;;10.35;6.78;;;6.40;99.90;;;-144.05;81.00;57046.38;5111699;28;20042;-78
2024/02/08 11:41:18;;;;;;;14.23;7.35;;;6.00;99.90;;;-144.05;81.49;57052.75;5107476;28;20008;-79
2024/02/08 11:43:47;;;;;;;13.95;7.10;;;1.00;99.90;;;-144.05;81.42;57052.75;5119213;28;20096;-79
2024/02/08 11:46:22;;;;;;;12.75;6.35;;;2.20;99.90;;;-144.05;80.95;57054.88;5112755;28;20044;-79
2024/02/08 11:48:49;;;;;;;10.65;6.28;;;2.00;99.90;;;-144.05;81.35;57050.63;5097111;28;20038;-78
2024/02/08 11:51:22;;;;;;;12.02;6.68;;;1.70;99.90;;;-144.05;81.97;57063.34;5099491;28;20032;-75
2024/02/08 11:53:51;;;;;;;11.05;6.55;;;;;;;-144.05;82.10;57054.88;5097919;28;20020;-75
2024/02/08 11:56:20;;;;;;;10.30;6.53;;;1.80;99.90;;;-144.05;82.41;57052.75;5106373;28;20095;-76
2024/02/08 11:58:54;;;;;;;13.07;7.30;;;5.20;99.90;;;-144.05;82.53;57056.97;5096052;28;20091;-76
2024/02/08 12:01:25;;;;;;;11.57;6.80;;;1.70;99.90;;;-144.05;82.51;57044.25;5110839;28;20023;-77
2024/02/08 12:03:53;;;;;;;13.93;7.47;;;1.90;99.90;;;-144.05;82.39;57046.38;5102809;28;20020;-77
2024/02/08 12:06:25;;;;;;;12.27;6.68;;;6.00;99.90;;;-144.05;83.20;57042.13;5100298;28;20028;-77
2024/02/08 12:09:03;;;;;;;11.48;7.28;;;1.70;99.90;;;-144.05;83.44;57031.50;5101007;28;20051;-78
2024/02/08 12:11:34;;;;;;;12.45;7.38;;;1.90;99.90;;;-144.05;83.44;57042.13;5099388;28;20039;-77
2024/02/08 12:14:10;;;;;;;13.45;7.25;;;2.30;99.90;;;-144.05;83.52;57063.34;5099238;28;20059;-77
2024/02/08 12:16:46;;;;;;;13.35;7.35;;;1.50;99.90;;;-144.05;83.49;57050.63;5097507;28;20095;-75
2024/02/08 12:19:19;;;;;;;10.98;6.78;;;6.00;99.90;;;-144.05;84.44;57069.72;5112011;28;20024;-76
2024/02/08 12:22:03;;;;;;;11.30;6.22;;;6.20;99.90;;;-144.05;84.55;57044.25;5128664;28;20059;-77
2024/02/08 12:24:32;;;;;;;11.98;6.63;;;2.10;99.90;;;-144.05;83.97;57018.75;5099595;28;20028;-76
2024/02/08 12:27:13;;;;;;;10.60;6.60;;;2.10;99.90;;;-144.05;84.14;57056.97;5094771;28;20373;-78
2024/02/08 12:29:50;;;;;;;13.30;7.53;;;1.60;99.90;;;-144.05;83.61;57048.50;5097535;28;20103;-79
2024/02/08 12:32:17;;;;;;;12.38;7.22;;;5.90;99.90;;;-144.05;83.39;57027.25;5093646;28;20027;-77
2024/02/08 12:34:49;;;;;;;15.25;7.55;;;1.90;99.90;;;-144.05;83.35;57016.63;5094506;28;20055;-79
2024/02/08 12:37:17;;;;;;;16.45;8.43;;;1.20;99.90;;;-144.05;83.67;57046.38;5091214;28;20397;-77
2024/02/08 12:39:45;;;;;;;16.85;8.48;;;5.10;99.90;;;-144.05;84.03;57035.75;5094021;28;20024;-78
2024/02/08 12:42:13;;;;;;;15.80;9.48;;;1.70;99.90;;;-144.05;84.38;57012.38;5093822;28;20024;-79
2024/02/08 12:44:48;;;;;;;14.70;7.55;;;1.30;99.90;;;-144.05;84.22;57054.88;5093687;28;20031;-75
2024/02/08 12:47:17;;;;;;;16.00;8.15;;;1.30;99.90;;;-144.05;84.13;57018.75;5092112;28;20067;-77